Time;durP1;ratioP1;P1;durP2;ratioP2;P2;SDS_P1;SDS_P2;PMS_P1;PMS_P2;Temp;Humidity;BMP_temperature;BMP_pressure;BME280_temperature;BME280_humidity;BME280_pressure;Samples;Min_cycle;Max_cycle;Signal;HPM_P1;HPM_P2
2022/11/15 00:03:09;;;;;;;1.58;1.02;;;;;;;18.18;48.11;100725.22;16128551;19;130174;-34
2022/11/15 00:08:31;;;;;;;2.38;1.38;;;;;;;18.14;48.60;100734.03;16125903;19;129525;-34
2022/11/15 00:13:57;;;;;;;1.20;0.95;;;;;;;18.14;48.18;100733.19;16125985;19;129433;-35
2022/11/15 00:19:19;;;;;;;;;;;;;;;18.09;48.28;100731.16;16125869;19;129277;-40
2022/11/15 00:24:40;;;;;;;2.88;1.17;;;;;;;18.09;48.47;100728.38;16127276;19;131566;-34
2022/11/15 00:30:02;;;;;;;1.48;1.13;;;;;;;18.07;48.66;100727.81;16126266;19;130309;-34
2022/11/15 00:35:24;;;;;;;2.03;1.05;;;;;;;18.04;48.66;100731.06;16124191;19;130958;-34
2022/11/15 00:40:46;;;;;;;1.00;0.90;;;;;;;18.02;48.60;100722.16;16127631;19;128906;-34
2022/11/15 00:46:09;;;;;;;1.73;1.10;;;;;;;18.01;48.78;100720.47;16124339;19;130160;-35
2022/11/15 00:51:31;;;;;;;1.50;0.93;;;;;;;17.99;48.34;100717.09;16126496;19;129370;-35
2022/11/15 00:56:52;;;;;;;1.70;0.95;;;;;;;17.98;48.34;100727.34;16125293;19;129698;-34
2022/11/15 01:02:14;;;;;;;0.95;0.85;;;;;;;17.97;48.75;100720.13;16125003;19;130302;-35
2022/11/15 01:07:36;;;;;;;1.50;1.00;;;;;;;17.97;48.72;100722.09;16119858;19;130411;-34
2022/11/15 01:12:58;;;;;;;1.25;0.85;;;;;;;17.96;48.80;100734.22;16120407;19;129718;-37
2022/11/15 01:18:20;;;;;;;1.10;0.90;;;;;;;17.95;48.80;100727.00;16118641;19;129338;-35
2022/11/15 01:23:41;;;;;;;2.20;1.05;;;;;;;17.93;48.83;100720.88;16119236;19;130682;-34
2022/11/15 01:29:04;;;;;;;1.60;0.90;;;;;;;17.91;48.61;100706.44;16118558;19;129496;-40
2022/11/15 01:34:25;;;;;;;1.02;0.80;;;;;;;17.89;48.59;100694.78;16119824;19;130580;-34
2022/11/15 01:39:47;;;;;;;1.27;0.90;;;;;;;17.88;48.62;100705.03;16120653;19;129450;-34
2022/11/15 01:45:15;;;;;;;0.85;0.70;;;;;;;17.88;48.51;100695.84;16117352;19;129321;-35
2022/11/15 01:50:37;;;;;;;1.17;0.80;;;;;;;17.86;48.57;100690.59;16120374;19;130924;-35
2022/11/15 01:56:06;;;;;;;1.48;0.88;;;;;;;17.85;48.64;100688.91;16117770;19;129605;-35
2022/11/15 02:01:30;;;;;;;0.80;0.77;;;;;;;17.85;49.00;100686.97;16118100;19;129922;-35
2022/11/15 02:06:52;;;;;;;1.05;0.70;;;;;;;17.84;48.80;100685.31;16134183;19;129407;-38
2022/11/15 02:12:18;;;;;;;1.08;0.90;;;;;;;17.83;48.69;100680.84;16133934;19;129469;-34
2022/11/15 02:17:59;;;;;;;1.25;0.70;;;;;;;17.83;48.69;100672.56;16132979;19;129477;-34
2022/11/15 02:23:39;;;;;;;1.65;0.90;;;;;;;17.81;48.83;100671.97;16131691;19;130079;-35
2022/11/15 02:29:08;;;;;;;1.00;0.90;;;;;;;17.81;48.74;100666.44;16133479;19;129505;-35
2022/11/15 02:34:54;;;;;;;1.13;0.80;;;;;;;17.81;48.53;100655.34;16131885;19;133360;-38
2022/11/15 02:40:37;;;;;;;1.33;0.80;;;;;;;17.77;48.73;100648.63;16130629;19;130195;-34
2022/11/15 02:46:08;;;;;;;2.03;0.80;;;;;;;17.78;49.07;100647.53;16132821;19;129793;-34
2022/11/15 02:51:29;;;;;;;1.00;0.90;;;;;;;17.76;48.94;100644.19;16129268;19;129787;-34
2022/11/15 02:56:59;;;;;;;1.27;1.00;;;;;;;17.76;48.48;100635.88;16131250;19;129659;-34
2022/11/15 03:02:23;;;;;;;1.30;0.70;;;;;;;17.76;48.78;100619.28;16129110;19;130467;-34
2022/11/15 03:07:51;;;;;;;1.00;0.75;;;;;;;17.75;48.88;100611.22;16127335;19;129340;-34
2022/11/15 03:13:37;;;;;;;0.98;0.70;;;;;;;17.75;48.86;100623.13;16127510;19;129759;-34
2022/11/15 03:19:08;;;;;;;1.27;1.00;;;;;;;17.74;48.79;100626.97;16128036;19;129954;-34
2022/11/15 03:24:33;;;;;;;1.48;0.90;;;;;;;17.73;48.87;100622.53;16127554;19;129680;-34
2022/11/15 03:30:00;;;;;;;1.27;0.97;;;;;;;17.74;48.60;100626.16;16129514;19;129194;-34
2022/11/15 03:35:25;;;;;;;1.38;0.90;;;;;;;17.74;48.42;100626.97;16126460;19;130407;-34
2022/11/15 03:40:58;;;;;;;1.10;0.77;;;;;;;17.75;48.78;100633.38;16130951;19;129328;-34
2022/11/15 03:46:22;;;;;;;1.10;0.80;;;;;;;17.73;48.55;100624.47;16127168;19;129236;-34
2022/11/15 03:51:44;;;;;;;1.08;0.93;;;;;;;17.73;48.31;100627.25;16126219;19;129389;-33
2022/11/15 03:57:06;;;;;;;1.15;0.90;;;;;;;17.71;48.33;100627.50;16128323;19;129991;-34
2022/11/15 04:02:28;;;;;;;0.80;0.80;;;;;;;17.71;48.38;100633.03;16121414;19;130249;-34
2022/11/15 04:07:49;;;;;;;1.38;0.90;;;;;;;17.71;48.60;100630.25;16125624;19;129144;-34
2022/11/15 04:13:11;;;;;;;1.27;1.08;;;;;;;17.70;48.56;100634.13;16124506;19;129523;-34
2022/11/15 04:18:33;;;;;;;1.00;0.80;;;;;;;17.70;48.82;100642.41;16125397;19;129711;-34
2022/11/15 04:24:12;;;;;;;1.17;0.73;;;;;;;17.70;48.26;100631.34;16125304;19;130001;-34
2022/11/15 04:29:34;;;;;;;0.88;0.70;;;;;;;17.69;48.58;100635.19;16124579;19;129724;-33
2022/11/15 04:34:56;;;;;;;1.30;0.80;;;;;;;17.69;48.55;100636.03;16121398;19;129338;-34
2022/11/15 04:40:18;;;;;;;0.80;0.70;;;;;;;17.69;48.24;100629.66;16122960;19;129067;-34
2022/11/15 04:45:39;;;;;;;0.68;0.68;;;;;;;17.67;48.41;100629.88;16122435;19;129266;-34
2022/11/15 04:51:01;;;;;;;0.95;0.70;;;;;;;17.68;48.36;100627.97;16121857;19;130386;-34
2022/11/15 04:56:23;;;;;;;0.88;0.82;;;;;;;17.67;48.61;100627.13;16120774;19;129285;-34
2022/11/15 05:01:44;;;;;;;2.28;0.73;;;;;;;17.67;48.29;100626.31;16120206;19;130314;-34
2022/11/15 05:07:06;;;;;;;0.63;0.60;;;;;;;17.67;48.19;100623.53;16122126;19;129422;-34
2022/11/15 05:12:28;;;;;;;1.40;0.90;;;;;;;17.66;48.30;100616.31;16119433;19;129818;-34
2022/11/15 05:17:50;;;;;;;1.98;1.10;;;;;;;17.66;48.35;100624.63;16118541;19;130204;-34
2022/11/15 05:23:12;;;;;;;1.38;0.93;;;;;;;17.65;48.44;100623.78;16119610;19;129494;-34
2022/11/15 05:28:36;;;;;;;1.25;1.00;;;;;;;17.65;48.52;100636.78;16121001;19;130886;-34
2022/11/15 05:33:59;;;;;;;0.82;0.70;;;;;;;17.64;48.56;100635.94;16117533;19;129692;-34
2022/11/15 05:39:21;;;;;;;0.70;0.60;;;;;;;17.65;48.19;100634.84;16128254;19;129518;-34
2022/11/15 05:44:48;;;;;;;0.95;0.57;;;;;;;17.64;48.22;100632.31;16133640;19;129637;-34
2022/11/15 05:50:14;;;;;;;0.70;0.63;;;;;;;17.64;48.15;100632.31;16134981;19;130242;-34
2022/11/15 05:55:38;;;;;;;2.25;1.00;;;;;;;17.63;48.61;100631.50;16133782;19;130140;-34
2022/11/15 06:01:01;;;;;;;1.55;0.70;;;;;;;17.61;48.14;100633.66;16136519;19;131223;-34
2022/11/15 06:06:22;;;;;;;0.70;0.60;;;;;;;17.63;48.07;100636.16;16132454;19;129810;-34
2022/11/15 06:11:44;;;;;;;0.50;0.50;;;;;;;17.65;48.50;100636.78;16131399;19;129354;-39
2022/11/15 06:17:06;;;;;;;0.80;0.65;;;;;;;17.64;48.39;100635.94;16131062;19;129639;-34
2022/11/15 06:22:31;;;;;;;0.60;0.50;;;;;;;17.65;48.26;100634.00;16131964;19;130453;-34
2022/11/15 06:27:54;;;;;;;3.10;0.90;;;;;;;17.65;48.37;100636.78;16130534;19;130921;-34
2022/11/15 06:33:16;;;;;;;8.15;1.30;;;;;;;17.66;48.26;100652.28;16132517;19;129425;-34
2022/11/15 06:38:38;;;;;;;3.22;0.88;;;;;;;17.66;48.11;100652.28;16137553;19;129943;-42
2022/11/15 06:43:59;;;;;;;8.52;1.10;;;;;;;17.67;48.14;100648.44;16139051;19;129940;-41
2022/11/15 06:49:21;;;;;;;4.28;0.98;;;;;;;17.67;48.50;100649.25;16132712;19;130556;-42
2022/11/15 06:54:43;;;;;;;5.28;1.00;;;;;;;17.67;48.49;100653.97;16130830;19;128919;-42
2022/11/15 07:00:06;;;;;;;7.88;0.90;;;;;;;17.67;48.36;100653.97;16132947;19;129441;-42
2022/11/15 07:05:28;;;;;;;3.60;0.90;;;;;;;17.67;48.49;100660.31;16133730;19;129685;-42
2022/11/15 07:10:50;;;;;;;5.57;0.82;;;;;;;17.67;48.29;100649.25;16131963;19;130151;-42
2022/11/15 07:16:12;;;;;;;4.40;0.93;;;;;;;17.67;48.17;100654.78;16132052;19;129512;-42
2022/11/15 07:21:33;;;;;;;1.50;0.65;;;;;;;17.69;48.03;100668.41;16132612;19;130346;-42
2022/11/15 07:26:55;;;;;;;5.93;0.80;;;;;;;17.73;47.94;100665.97;16134590;19;131915;-42
2022/11/15 07:32:17;;;;;;;4.40;0.80;;;;;;;17.89;47.77;100673.50;16128449;19;129826;-42
2022/11/15 07:37:38;;;;;;;12.88;1.10;;;;;;;18.02;47.44;100675.09;16127495;19;129559;-42
2022/11/15 07:43:02;;;;;;;9.70;1.65;;;;;;;18.00;47.45;100666.19;16128734;19;130060;-42
2022/11/15 07:48:24;;;;;;;13.95;2.20;;;;;;;18.03;47.38;100657.41;16127940;19;130570;-41
2022/11/15 07:53:52;;;;;;;15.50;1.60;;;;;;;18.22;47.31;100657.16;16129056;19;129441;-42
2022/11/15 07:59:14;;;;;;;7.70;1.20;;;;;;;18.21;46.99;100647.22;16129947;19;130127;-42
2022/11/15 08:04:35;;;;;;;9.10;1.60;;;;;;;18.17;47.18;100659.88;16126458;19;130064;-42
2022/11/15 08:09:58;;;;;;;9.15;1.63;;;;;;;18.13;47.53;100654.81;16129068;19;130254;-42
2022/11/15 08:15:20;;;;;;;12.18;1.48;;;;;;;18.24;46.86;100647.53;16129037;19;132397;-42
2022/11/15 08:20:43;;;;;;;6.85;1.30;;;;;;;18.22;46.69;100635.03;16127177;19;129895;-44
2022/11/15 08:26:04;;;;;;;6.15;1.45;;;;;;;18.18;46.79;100628.31;16129261;19;129954;-41
2022/11/15 08:31:26;;;;;;;3.50;1.20;;;;;;;18.14;47.09;100623.28;16124767;19;129384;-42
2022/11/15 08:36:48;;;;;;;7.70;1.27;;;;;;;18.13;47.00;100607.75;16125136;19;129511;-42
2022/11/15 08:42:09;;;;;;;9.43;1.38;;;;;;;18.11;46.77;100598.84;16126988;19;129588;-42
2022/11/15 08:47:37;;;;;;;6.78;1.25;;;;;;;18.09;46.71;100595.50;16124381;19;129638;-42
2022/11/15 08:53:08;;;;;;;2.78;1.10;;;;;;;18.06;47.12;100596.03;16126013;19;129003;-42
2022/11/15 08:58:29;;;;;;;7.25;1.13;;;;;;;18.02;46.99;100588.47;16125224;19;129629;-43
2022/11/15 09:03:52;;;;;;;5.30;0.90;;;;;;;17.99;46.96;100585.09;16124192;19;129611;-42
2022/11/15 09:09:14;;;;;;;3.60;0.93;;;;;;;18.00;47.31;100585.94;16121738;19;129525;-42
2022/11/15 09:14:36;;;;;;;2.55;0.90;;;;;;;18.01;46.87;100587.63;16132938;19;129465;-42
2022/11/15 09:19:58;;;;;;;4.95;1.13;;;;;;;18.02;47.09;100581.00;16140597;19;130217;-42
2022/11/15 09:25:20;;;;;;;4.20;1.05;;;;;;;18.02;46.95;100580.16;16139284;19;129669;-42
2022/11/15 09:30:41;;;;;;;5.30;0.90;;;;;;;18.01;46.98;100576.53;16138147;19;129656;-43
2022/11/15 09:36:07;;;;;;;2.72;0.50;;;;;;;18.02;46.83;100583.75;16137592;19;129439;-42
2022/11/15 09:41:56;;;;;;;0.70;0.63;;;;;;;18.04;47.19;100587.13;16136537;19;129246;-42
2022/11/15 09:47:30;;;;;;;6.32;0.90;;;;;;;18.06;47.13;100579.41;16136813;19;129669;-42
2022/11/15 09:52:52;;;;;;;1.40;0.60;;;;;;;18.06;46.90;100567.47;16139432;19;130570;-42
2022/11/15 09:58:33;;;;;;;3.60;0.70;;;;;;;18.10;46.81;100563.97;16135013;19;130438;-42
2022/11/15 10:03:57;;;;;;;1.98;0.70;;;;;;;18.11;46.76;100565.63;16137484;19;133689;-42
2022/11/15 10:09:28;;;;;;;2.20;0.63;;;;;;;18.12;46.85;100556.25;16135685;19;129694;-42
2022/11/15 10:15:04;;;;;;;1.73;0.65;;;;;;;18.12;46.99;100541.56;16138929;19;131430;-43
2022/11/15 10:20:28;;;;;;;2.80;0.50;;;;;;;18.09;46.79;100534.59;16133598;19;130837;-44
2022/11/15 10:25:59;;;;;;;1.40;0.40;;;;;;;18.10;46.93;100525.19;16133550;19;131093;-42
2022/11/15 10:31:28;;;;;;;1.67;0.50;;;;;;;18.09;46.42;100523.53;16131482;19;129372;-43
2022/11/15 10:36:56;;;;;;;3.20;0.60;;;;;;;18.09;46.70;100503.31;16134591;19;131708;-41
2022/11/15 10:42:29;;;;;;;3.50;0.75;;;;;;;18.08;46.85;100488.66;16132317;19;129475;-42
2022/11/15 10:47:50;;;;;;;0.60;0.30;;;;;;;18.04;46.77;100476.41;16133045;19;131714;-40
2022/11/15 10:53:38;;;;;;;2.10;0.50;;;;;;;18.04;46.92;100470.88;16131595;19;129353;-43
2022/11/15 10:59:00;;;;;;;2.60;0.35;;;;;;;18.01;46.71;100460.28;16133832;19;130906;-42
2022/11/15 11:04:22;;;;;;;1.90;0.35;;;;;;;18.00;47.03;100453.06;16132378;19;130164;-42
2022/11/15 11:09:44;;;;;;;0.57;0.45;;;;;;;17.98;46.66;100438.66;16130372;19;130492;-43
2022/11/15 11:15:12;;;;;;;2.88;0.52;;;;;;;17.98;47.02;100438.66;16130817;19;129491;-42
2022/11/15 11:20:41;;;;;;;0.80;0.40;;;;;;;17.95;46.94;100425.34;16132201;19;130568;-42
2022/11/15 11:26:33;;;;;;;3.05;0.57;;;;;;;17.95;46.85;100412.31;16130901;19;129900;-42
2022/11/15 11:32:22;;;;;;;3.88;0.63;;;;;;;17.94;47.07;100396.00;16131938;19;135854;-42
2022/11/15 11:37:52;;;;;;;1.58;0.47;;;;;;;17.91;46.94;100388.19;16125343;19;129665;-42
2022/11/15 11:43:23;;;;;;;3.40;0.50;;;;;;;17.91;46.65;100377.13;16130116;19;129283;-42
2022/11/15 11:48:56;;;;;;;1.08;0.40;;;;;;;17.90;46.73;100354.16;16124805;19;129347;-42
2022/11/15 11:54:42;;;;;;;3.65;0.43;;;;;;;17.89;47.06;100344.19;16128788;19;129713;-43
2022/11/15 12:00:12;;;;;;;3.60;0.47;;;;;;;17.89;46.57;100343.31;16125801;19;129469;-43
2022/11/15 12:05:45;;;;;;;0.95;0.30;;;;;;;17.87;47.02;100334.44;16128257;19;129756;-42
2022/11/15 12:11:16;;;;;;;1.77;0.65;;;;;;;17.88;47.00;100328.66;16127583;19;129505;-43
2022/11/15 12:16:41;;;;;;;2.95;0.82;;;;;;;17.85;46.69;100318.91;16124506;19;129368;-44
2022/11/15 12:22:15;;;;;;;1.70;1.03;;;;;;;17.86;46.93;100305.94;16125827;19;130614;-42
2022/11/15 12:27:42;;;;;;;1.65;0.90;;;;;;;17.86;47.12;100292.09;16124479;19;129422;-43
2022/11/15 12:33:03;;;;;;;2.67;1.20;;;;;;;17.85;47.11;100284.91;16124680;19;129823;-43
2022/11/15 12:38:52;;;;;;;3.63;1.23;;;;;;;17.87;47.15;100284.63;16120760;19;130266;-42
2022/11/15 12:44:32;;;;;;;3.65;1.60;;;;;;;17.85;47.30;100269.13;16124236;19;130738;-42
2022/11/15 12:49:54;;;;;;;2.10;1.13;;;;;;;17.82;47.55;100253.06;16124195;19;129503;-42
2022/11/15 12:55:31;;;;;;;3.45;1.25;;;;;;;17.84;47.41;100245.34;16124263;19;129742;-42
2022/11/15 13:00:52;;;;;;;2.53;1.50;;;;;;;17.82;47.41;100233.69;16123352;19;129585;-42
2022/11/15 13:06:37;;;;;;;3.05;1.40;;;;;;;17.84;47.61;100227.88;16122109;19;129663;-42
2022/11/15 13:12:01;;;;;;;2.70;0.98;;;;;;;17.81;47.47;100218.19;16121697;19;129815;-42
2022/11/15 13:17:29;;;;;;;2.67;1.20;;;;;;;17.82;47.84;100206.00;16120825;19;129452;-42
2022/11/15 13:23:11;;;;;;;2.92;1.30;;;;;;;17.80;47.48;100188.84;16123050;19;129537;-42
2022/11/15 13:29:00;;;;;;;1.60;1.00;;;;;;;17.79;47.72;100187.16;16122165;19;129626;-42
2022/11/15 13:34:25;;;;;;;1.33;1.20;;;;;;;17.79;47.82;100169.69;16120175;19;130392;-42
2022/11/15 13:40:34;;;;;;;1.95;1.00;;;;;;;17.80;47.75;100165.84;16122947;19;129578;-42
2022/11/15 13:46:18;;;;;;;2.55;1.40;;;;;;;17.80;48.01;100144.56;16121662;19;130224;-42
2022/11/15 13:51:46;;;;;;;2.78;1.20;;;;;;;17.78;47.67;100130.16;16120430;19;129844;-42
2022/11/15 13:57:25;;;;;;;3.40;1.10;;;;;;;17.79;48.10;100130.97;16121454;19;130920;-41
2022/11/15 14:02:46;;;;;;;3.33;1.20;;;;;;;17.76;48.07;100120.44;16137149;19;129657;-42
2022/11/15 14:08:20;;;;;;;1.95;1.20;;;;;;;17.76;48.21;100101.91;16135817;19;129780;-42
2022/11/15 14:13:59;;;;;;;1.45;1.00;;;;;;;17.74;48.08;100084.72;16127288;19;130252;-45
2022/11/15 14:19:21;;;;;;;1.60;0.90;;;;;;;17.75;48.26;100080.03;16132993;19;130697;-42
2022/11/15 14:24:45;;;;;;;2.35;0.82;;;;;;;17.75;47.84;100075.34;16131845;19;129645;-42
2022/11/15 14:30:16;;;;;;;3.15;0.90;;;;;;;17.76;47.98;100065.13;16133108;19;129573;-42
2022/11/15 14:35:38;;;;;;;1.70;1.00;;;;;;;17.75;48.23;100066.22;16130440;19;129518;-42
2022/11/15 14:41:00;;;;;;;1.75;0.90;;;;;;;17.75;47.85;100052.38;16132627;19;129742;-41
2022/11/15 14:46:21;;;;;;;1.42;0.65;;;;;;;17.75;48.05;100046.84;16130282;19;129930;-42
2022/11/15 14:51:43;;;;;;;3.40;0.88;;;;;;;17.75;48.34;100053.19;16127988;19;129585;-42
2022/11/15 14:57:05;;;;;;;2.35;1.00;;;;;;;17.74;48.17;100057.06;16130078;19;130222;-42
2022/11/15 15:02:27;;;;;;;1.58;0.65;;;;;;;17.75;48.05;100053.19;16125984;19;130546;-42
2022/11/15 15:07:49;;;;;;;1.17;0.80;;;;;;;17.75;48.42;100047.66;16130456;19;129835;-42
2022/11/15 15:13:19;;;;;;;4.15;0.88;;;;;;;17.75;48.43;100033.84;16131957;19;129540;-42
2022/11/15 15:18:41;;;;;;;1.15;0.60;;;;;;;17.73;48.35;100036.03;16130948;19;129892;-42
2022/11/15 15:24:02;;;;;;;1.60;0.60;;;;;;;17.74;48.32;100028.56;16127015;19;129525;-42
2022/11/15 15:29:24;;;;;;;1.23;0.60;;;;;;;17.74;48.42;100025.81;16128552;19;129738;-42
2022/11/15 15:34:46;;;;;;;1.55;0.68;;;;;;;17.73;48.51;100018.59;16129029;19;129625;-42
2022/11/15 15:40:13;;;;;;;3.45;1.05;;;;;;;17.72;48.59;100020.56;16127977;19;129551;-42
2022/11/15 15:45:40;;;;;;;4.38;0.82;;;;;;;17.73;48.30;100010.31;16128676;19;133313;-42
2022/11/15 15:51:02;;;;;;;0.80;0.60;;;;;;;17.71;48.41;100006.97;16125317;19;131976;-42
2022/11/15 15:56:34;;;;;;;1.33;0.65;;;;;;;17.70;48.70;100006.16;16126698;19;129962;-43
2022/11/15 16:01:56;;;;;;;1.15;0.60;;;;;;;17.70;48.83;100003.38;16125421;19;129712;-42
2022/11/15 16:07:23;;;;;;;2.55;0.90;;;;;;;17.69;48.83;100005.28;16126171;19;129675;-43
2022/11/15 16:12:45;;;;;;;0.98;0.52;;;;;;;17.69;48.71;99996.16;16126357;19;129854;-42
2022/11/15 16:18:14;;;;;;;0.93;0.60;;;;;;;17.68;48.41;99986.19;16126509;19;129071;-43
2022/11/15 16:23:36;;;;;;;1.48;0.50;;;;;;;17.65;48.71;99990.34;16122445;19;130115;-43
2022/11/15 16:28:58;;;;;;;1.15;0.50;;;;;;;17.64;48.61;99985.91;16125692;19;129553;-42
2022/11/15 16:34:20;;;;;;;2.75;0.80;;;;;;;17.63;48.25;99983.38;16123126;19;129667;-43
2022/11/15 16:39:41;;;;;;;1.13;0.70;;;;;;;17.65;48.66;99983.94;16124955;19;129463;-42
2022/11/15 16:45:03;;;;;;;3.88;0.90;;;;;;;17.66;48.36;99977.31;16123756;19;129457;-42
2022/11/15 16:50:28;;;;;;;1.48;0.70;;;;;;;17.66;48.45;99971.78;16123097;19;130933;-42
2022/11/15 16:55:50;;;;;;;1.37;0.63;;;;;;;17.65;48.51;99967.34;16121754;19;129978;-42
2022/11/15 17:01:23;;;;;;;0.95;0.57;;;;;;;17.67;48.26;99957.69;16120766;19;129518;-43
2022/11/15 17:06:46;;;;;;;2.10;0.60;;;;;;;17.67;48.44;99962.41;16120371;19;130098;-42
2022/11/15 17:12:10;;;;;;;1.20;0.60;;;;;;;17.69;48.57;99957.44;16121622;19;129478;-42
2022/11/15 17:17:32;;;;;;;1.77;0.60;;;;;;;17.69;48.11;99957.44;16120421;19;129574;-42
2022/11/15 17:22:55;;;;;;;2.30;0.70;;;;;;;17.68;48.60;99948.28;16123987;19;129995;-42
2022/11/15 17:28:17;;;;;;;2.00;0.63;;;;;;;17.68;48.28;99951.06;16120649;19;129258;-42
2022/11/15 17:33:40;;;;;;;1.63;0.60;;;;;;;17.70;48.22;99942.53;16125156;19;129583;-42
2022/11/15 17:39:03;;;;;;;1.10;0.60;;;;;;;17.71;48.44;99938.66;16134385;19;130054;-42
2022/11/15 17:44:24;;;;;;;2.25;0.55;;;;;;;17.74;48.95;99935.34;16134656;19;129655;-43
2022/11/15 17:49:46;;;;;;;0.95;0.47;;;;;;;17.91;48.99;99934.38;16135533;19;130011;-42
2022/11/15 17:55:08;;;;;;;2.30;0.60;;;;;;;18.31;48.59;99928.25;16134921;19;129412;-42
2022/11/15 18:00:30;;;;;;;9.38;0.80;;;;;;;18.85;47.95;99931.00;16134157;19;135767;-42
2022/11/15 18:05:52;;;;;;;12.27;1.30;;;;;;;19.35;47.18;99931.44;16134958;19;129611;-42
2022/11/15 18:11:20;;;;;;;13.57;0.75;;;;;;;19.75;46.31;99915.06;16138725;19;129332;-42
2022/11/15 18:16:42;;;;;;;17.30;1.02;;;;;;;19.92;46.14;99907.28;16135238;19;129853;-42
2022/11/15 18:22:06;;;;;;;9.65;0.80;;;;;;;19.96;46.37;99911.16;16136974;19;129154;-42
2022/11/15 18:27:27;;;;;;;9.45;0.85;;;;;;;19.92;46.40;99904.50;16135222;19;130564;-42
2022/11/15 18:32:51;;;;;;;10.48;1.35;;;;;;;19.85;45.94;99903.94;16135957;19;129157;-42
2022/11/15 18:38:13;;;;;;;13.20;0.82;;;;;;;19.76;46.39;99897.31;16133322;19;130570;-42
2022/11/15 18:43:36;;;;;;;5.15;0.60;;;;;;;19.64;46.83;99886.47;16131966;19;130465;-42
2022/11/15 18:48:59;;;;;;;6.88;0.73;;;;;;;19.54;46.89;99884.56;16131871;19;129418;-42
2022/11/15 18:54:21;;;;;;;4.05;0.52;;;;;;;19.46;47.20;99887.88;16132597;19;129528;-42
2022/11/15 18:59:48;;;;;;;6.85;1.10;;;;;;;19.35;47.22;99882.34;16131974;19;129568;-41
2022/11/15 19:05:10;;;;;;;28.10;1.30;;;;;;;19.24;47.77;99880.66;16130795;19;133031;-42
2022/11/15 19:10:33;;;;;;;16.73;1.20;;;;;;;19.19;47.81;99875.09;16129478;19;129105;-43
2022/11/15 19:15:59;;;;;;;21.13;1.27;;;;;;;19.17;48.17;99871.78;16131248;19;129506;-41
2022/11/15 19:21:22;;;;;;;10.88;0.95;;;;;;;19.16;48.41;99864.56;16132281;19;129659;-42
2022/11/15 19:26:44;;;;;;;14.02;0.80;;;;;;;19.16;48.42;99853.47;16127225;19;129284;-42
2022/11/15 19:32:06;;;;;;;13.60;0.88;;;;;;;19.24;48.24;99852.13;16127423;19;130508;-42
2022/11/15 19:37:28;;;;;;;7.22;0.80;;;;;;;19.32;48.56;99854.31;16126721;19;130794;-42
2022/11/15 19:42:49;;;;;;;5.32;0.75;;;;;;;19.40;48.52;99841.84;16129009;19;129408;-42
2022/11/15 19:48:11;;;;;;;9.68;0.90;;;;;;;19.46;48.09;99851.81;16125625;19;130109;-42
2022/11/15 19:53:33;;;;;;;5.95;0.80;;;;;;;19.49;48.10;99835.47;16127363;19;131163;-43
2022/11/15 19:58:56;;;;;;;4.47;0.70;;;;;;;19.65;48.26;99830.72;16126357;19;129401;-42
2022/11/15 20:04:18;;;;;;;2.08;0.70;;;;;;;19.93;47.68;99831.22;16127875;19;129412;-42
2022/11/15 20:09:39;;;;;;;5.00;0.70;;;;;;;20.24;47.29;99822.81;16127337;19;129706;-42
2022/11/15 20:15:01;;;;;;;9.60;0.65;;;;;;;20.53;46.85;99830.47;16128649;19;129630;-42
2022/11/15 20:20:23;;;;;;;6.55;1.00;;;;;;;20.75;46.47;99837.56;16126939;19;129808;-42
2022/11/15 20:25:46;;;;;;;12.23;0.80;;;;;;;20.85;46.38;99837.50;16124126;19;129577;-42
2022/11/15 20:31:09;;;;;;;8.75;1.10;;;;;;;20.84;46.25;99830.28;16126079;19;129621;-43
2022/11/15 20:36:31;;;;;;;13.48;0.80;;;;;;;20.77;46.77;99829.78;16124767;19;130008;-43
2022/11/15 20:41:53;;;;;;;18.08;1.63;;;;;;;20.72;46.54;99827.84;16124665;19;129491;-43
2022/11/15 20:47:14;;;;;;;11.48;0.80;;;;;;;20.72;46.77;99815.88;16123484;19;129487;-42
2022/11/15 20:52:36;;;;;;;8.07;0.93;;;;;;;20.80;46.80;99812.53;16119715;19;129456;-41
2022/11/15 20:57:58;;;;;;;8.88;1.00;;;;;;;21.04;46.12;99812.63;16119419;19;129818;-42
2022/11/15 21:03:20;;;;;;;8.88;0.80;;;;;;;21.17;46.56;99794.44;16124136;19;129267;-43
2022/11/15 21:14:22;;;;;;;6.93;0.85;;;;;;;21.19;46.18;99780.25;16119170;19;129690;-43
2022/11/15 21:19:46;;;;;;;8.68;0.93;;;;;;;21.11;46.46;99778.13;16118572;19;130396;-42
2022/11/15 21:25:08;;;;;;;10.80;1.00;;;;;;;20.96;46.44;99770.72;16119292;19;129331;-42
2022/11/15 21:30:29;;;;;;;12.27;0.85;;;;;;;20.80;46.77;99761.69;16119206;19;129423;-43
2022/11/15 21:35:55;;;;;;;6.78;0.90;;;;;;;20.67;46.69;99765.91;16120355;19;131767;-43
2022/11/15 21:41:17;;;;;;;;;;;;;;;20.49;47.03;99759.91;16121763;19;129468;-42
2022/11/15 21:46:38;;;;;;;3.60;0.70;;;;;;;20.38;46.78;99761.09;16119377;19;129568;-42
2022/11/15 21:52:00;;;;;;;4.40;1.00;;;;;;;20.27;47.02;99757.53;16123573;19;129640;-43
2022/11/15 21:57:22;;;;;;;3.22;0.60;;;;;;;20.14;47.15;99761.78;16121207;19;129086;-48
2022/11/15 22:02:43;;;;;;;3.22;0.65;;;;;;;20.04;47.64;99751.53;16116527;19;129521;-42
2022/11/15 22:08:05;;;;;;;3.03;0.60;;;;;;;19.95;47.61;99754.03;16117317;19;130372;-42
2022/11/15 22:13:27;;;;;;;1.73;0.40;;;;;;;19.87;47.61;99739.94;16116817;19;129301;-42
2022/11/15 22:18:49;;;;;;;5.57;0.60;;;;;;;19.80;47.99;99734.69;16122139;19;129799;-42
2022/11/15 22:24:11;;;;;;;3.47;0.80;;;;;;;19.71;47.72;99731.66;16135243;19;130872;-43
2022/11/15 22:29:32;;;;;;;2.30;0.47;;;;;;;19.64;47.94;99726.41;16136184;19;129584;-42
2022/11/15 22:34:54;;;;;;;0.43;0.40;;;;;;;19.57;48.29;99728.63;16137544;19;129544;-43
2022/11/15 22:40:16;;;;;;;2.30;0.38;;;;;;;19.49;47.92;99730.06;16136551;19;130392;-42
2022/11/15 22:45:54;;;;;;;2.25;0.47;;;;;;;19.47;48.02;99737.84;16134775;19;129371;-42
2022/11/15 22:51:16;;;;;;;1.27;0.40;;;;;;;19.40;48.40;99731.72;16129830;19;131103;-42
2022/11/15 22:56:38;;;;;;;2.92;0.50;;;;;;;19.35;48.42;99721.47;16128260;19;129896;-42
2022/11/15 23:01:59;;;;;;;4.10;0.45;;;;;;;19.30;48.25;99720.66;16127525;19;129535;-42
2022/11/15 23:07:21;;;;;;;2.50;0.47;;;;;;;19.24;48.85;99722.63;16129038;19;129664;-41
2022/11/15 23:18:23;;;;;;;0.77;0.50;;;;;;;19.18;48.64;99696.00;16130041;19;129378;-41
2022/11/15 23:23:45;;;;;;;3.10;0.75;;;;;;;19.13;48.42;99718.16;16127844;19;130641;-42
2022/11/15 23:29:08;;;;;;;2.00;0.40;;;;;;;19.11;48.77;99720.38;16130400;19;129567;-42
2022/11/15 23:34:31;;;;;;;1.20;0.45;;;;;;;19.06;48.75;99694.34;16129227;19;135045;-42
2022/11/15 23:39:53;;;;;;;3.10;0.50;;;;;;;19.03;48.97;99694.06;16133910;19;129774;-42
2022/11/15 23:45:15;;;;;;;3.22;0.43;;;;;;;18.99;49.13;99710.41;16131096;19;129318;-41
2022/11/15 23:50:36;;;;;;;2.42;0.47;;;;;;;18.96;48.79;99694.34;16128469;19;130160;-42
2022/11/15 23:56:03;;;;;;;4.32;0.30;;;;;;;18.93;48.77;99700.47;16130526;19;130177;-41
